• Join FlightAware (Why Join?)
  • Login
  • US Flag 
07:04PM EDT


 

Airport Tracker/Info


-or-


 

Live Flight TrackerFlight Track Log ✈ SKW5550 ✈ 21-Oct-2013 ✈ KDEN - KSMF

Flight Track Log - Related Links

Times and Time Zones

All times are in EDT time to prevent confusion due to time zone crossing. See the SKW5550 flight status page for this flight to view local times or setup timezone preferences in your user account.

Time Position Orientation Groundspeed Altitude Reporting Facility
EDT Latitude Longitude Course Direction KTS MPH feet Rate Location/Type
05:04PM 39.8500 -104.7667 303° West 200 230 7,200  Level Denver TRACON
05:05PM 39.8833 -104.8333 303° West 244 281 9,100 1,980 Climbing Denver TRACON
05:06PM 39.9081 -104.9175 291° West 266 306 11,100 2,220 Climbing Denver Center
05:07PM 39.9164 -105.0172 276° West 278 320 13,500 2,100 Climbing Denver Center
05:08PM 39.9264 -105.1289 277° West 289 333 15,500 1,740 Climbing Denver Center
05:09PM 39.9361 -105.2394 277° West 304 350 17,200 1,500 Climbing Denver Center
05:10PM 39.9453 -105.3519 276° West 313 360 18,600 1,320 Climbing Denver Center
05:11PM 39.9561 -105.4781 276° West 326 375 20,000 1,200 Climbing Denver Center
05:12PM 39.9675 -105.5953 277° West 327 376 21,200 1,200 Climbing Denver Center
05:13PM 39.9736 -105.7289 273° West 344 396 22,500 960 Climbing Denver Center
05:14PM 39.9711 -105.8503 268° West 352 405 23,300 780 Climbing Denver Center
05:15PM 39.9786 -105.9811 274° West 362 417 24,200 960 Climbing Denver Center
05:16PM 39.9869 -106.1422 274° West 372 428 25,300 960 Climbing Denver Center
05:17PM 39.9939 -106.2781 274° West 375 432 26,200 780 Climbing Denver Center
05:18PM 40.0014 -106.4122 274° West 375 432 27,000 720 Climbing Denver Center
05:19PM 40.0203 -106.5578 280° West 375 432 27,800 660 Climbing Denver Center
05:20PM 40.0408 -106.6847 282° West 374 430 28,400 660 Climbing Denver Center
05:21PM 40.0639 -106.8339 281° West 377 434 29,200 720 Climbing Denver Center
05:22PM 40.0819 -106.9617 281° West 375 432 29,900 720 Climbing Denver Center
05:23PM 40.1064 -107.1108 282° West 377 434 30,700 660 Climbing Denver Center
05:24PM 40.1247 -107.2375 281° West 373 429 31,300 480 Climbing Denver Center
05:25PM 40.1433 -107.3633 281° West 371 427 31,700 300 Climbing Denver Center
05:26PM 40.1650 -107.5119 281° West 373 429 32,000 120 Climbing Denver Center
05:27PM 40.1847 -107.6431 281° West 382 440 32,000  Level Denver Center
05:28PM 40.2058 -107.7997 280° West 392 451 32,000  Level Denver Center
05:30PM 40.2264 -107.9364 281° West 399 459 32,000  Level Denver Center
05:31PM 40.2500 -108.1008 281° West 411 473 32,000  Level Denver Center
05:32PM 40.2700 -108.2425 281° West 415 478 32,000  Level Denver Center
05:33PM 40.2931 -108.4067 280° West 414 476 32,000  Level Denver Center
05:33PM 40.3031 -108.4858 279° West 417 480 32,000  Level Salt Lake Center
05:34PM 40.3231 -108.6286 280° West 416 479 32,000  Level Salt Lake Center
05:35PM 40.3342 -108.7150 280° West 415 478 32,000  Level Denver Center
05:36PM 40.3536 -108.8583 280° West 417 480 32,000  Level Denver Center
05:36PM 40.3669 -108.9533 280° West 417 480 32,000  Level Salt Lake Center
05:37PM 40.3850 -109.0958 279° West 417 480 32,000  Level Salt Lake Center
05:38PM 40.4064 -109.2614 280° West 414 476 32,000  Level Salt Lake Center
05:39PM 40.4261 -109.4031 280° West 413 475 32,000  Level Salt Lake Center
05:40PM 40.4464 -109.5703 279° West 416 479 32,000  Level Salt Lake Center
05:41PM 40.4647 -109.7153 279° West 420 483 32,000  Level Salt Lake Center
05:42PM 40.4833 -109.8583 280° West 417 480 32,000  Level Salt Lake Center
05:43PM 40.5031 -110.0283 279° West 422 486 32,000  Level Salt Lake Center
05:44PM 40.5172 -110.1756 277° West 424 488 32,000  Level Salt Lake Center
05:46PM 40.5342 -110.3467 277° West 424 488 32,000  Level Salt Lake Center
05:47PM 40.5478 -110.4944 277° West 426 490 32,000  Level Salt Lake Center
05:48PM 40.5608 -110.6400 277° West 426 490 32,000  Level Salt Lake Center
05:49PM 40.5789 -110.8256 277° West 428 493 32,000  Level Salt Lake Center
05:50PM 40.5931 -110.9797 277° West 426 490 32,000  Level Salt Lake Center
05:51PM 40.6069 -111.1358 277° West 428 493 32,000  Level Salt Lake Center
05:52PM 40.6200 -111.2911 276° West 428 493 32,000  Level Salt Lake Center
05:53PM 40.6333 -111.4469 276° West 428 493 32,000  Level Salt Lake Center
05:54PM 40.6467 -111.6031 276° West 427 491 32,000  Level Salt Lake Center
05:55PM 40.6603 -111.7608 277° West 430 495 32,000  Level Salt Lake Center
05:56PM 40.6733 -111.9186 276° West 429 494 32,000  Level Salt Lake Center
05:57PM 40.6853 -112.0769 276° West 430 495 32,000  Level Salt Lake Center
05:58PM 40.7008 -112.2664 276° West 431 496 32,000  Level Salt Lake Center
05:59PM 40.7122 -112.4239 276° West 432 497 32,000  Level Salt Lake Center
06:00PM 40.7233 -112.5806 275° West 427 491 32,000  Level Salt Lake Center
06:01PM 40.7231 -112.7386 270° West 429 494 32,000  Level Salt Lake Center
06:02PM 40.7253 -112.8967 271° West 430 495 32,000  Level Salt Lake Center
06:03PM 40.7253 -113.0531 270° West 428 493 32,000  Level Salt Lake Center
06:04PM 40.7264 -113.2103 271° West 429 494 32,000  Level Salt Lake Center
06:05PM 40.7283 -113.3653 271° West 424 488 32,000  Level Salt Lake Center
06:06PM 40.7267 -113.5539 269° West 427 491 32,000  Level Salt Lake Center
06:07PM 40.7261 -113.7108 270° West 430 495 32,000  Level Salt Lake Center
06:08PM 40.7239 -113.8681 269° West 430 495 32,000  Level Salt Lake Center
06:09PM 40.7189 -114.0250 268° West 430 495 32,000  Level Salt Lake Center
06:10PM 40.7122 -114.1831 267° West 433 498 32,000  Level Salt Lake Center
06:11PM 40.7075 -114.3403 268° West 431 496 32,000  Level Salt Lake Center
06:12PM 40.7025 -114.4989 268° West 433 498 32,000  Level Salt Lake Center
06:13PM 40.6953 -114.6875 267° West 432 497 32,000  Level Salt Lake Center
06:14PM 40.6881 -114.8258 266° West 432 497 32,000  Level Salt Lake Center
06:15PM 40.6794 -115.0031 266° West 433 498 32,000  Level Salt Lake Center
06:16PM 40.6689 -115.1544 265° West 434 499 32,000  Level Salt Lake Center
06:17PM 40.6592 -115.3303 266° West 432 497 32,000  Level Salt Lake Center
06:18PM 40.6514 -115.4811 266° West 432 497 32,000  Level Salt Lake Center
06:19PM 40.6431 -115.6589 267° West 435 501 32,000  Level Salt Lake Center
06:20PM 40.6375 -115.8092 267° West 432 497 32,000  Level Salt Lake Center
06:21PM 40.6289 -115.9619 266° West 435 501 32,000  Level Salt Lake Center
06:23PM 40.6186 -116.1383 266° West 435 501 32,000  Level Salt Lake Center
06:24PM 40.6092 -116.2919 265° West 439 505 32,000  Level Salt Lake Center
06:25PM 40.5981 -116.4686 265° West 437 503 32,000  Level Salt Lake Center
06:26PM 40.5883 -116.6211 265° West 439 505 32,000  Level Salt Lake Center
06:27PM 40.5772 -116.7953 265° West 434 499 32,000  Level Salt Lake Center
06:28PM 40.5611 -116.9439 262° West 440 506 32,000  Level Salt Lake Center
06:29PM 40.5033 -117.1033 245° Southwest 440 506 32,000  Level Salt Lake Center
06:30PM 40.4539 -117.2408 245° Southwest 439 505 32,000  Level Salt Lake Center
06:31PM 40.3942 -117.3994 244° Southwest 437 503 32,000  Level Salt Lake Center
06:32PM 40.3439 -117.5367 244° Southwest 437 503 32,000  Level Salt Lake Center
06:33PM 40.2847 -117.6958 244° Southwest 434 499 32,000  Level Salt Lake Center
06:34PM 40.2331 -117.8319 244° Southwest 437 503 32,000  Level Salt Lake Center
06:35PM 40.1889 -117.9572 245° Southwest 442 509 32,000  Level Oakland Center
06:36PM 40.1356 -118.0992 244° Southwest 439 505 32,000  Level Oakland Center
06:37PM 40.0800 -118.2403 243° Southwest 438 504 32,000  Level Oakland Center
06:38PM 40.0264 -118.3836 244° Southwest 439 505 32,000  Level Oakland Center
06:39PM 39.9731 -118.5250 244° Southwest 437 503 32,000  Level Oakland Center
06:40PM 39.9181 -118.6669 243° Southwest 441 507 32,000  Level Oakland Center
06:41PM 39.8642 -118.8069 243° Southwest 439 505 32,000  Level Oakland Center
06:42PM 39.7981 -118.9767 243° Southwest 440 506 32,000  Level Oakland Center
06:43PM 39.7428 -119.1183 243° Southwest 442 509 32,000 -420 Level Oakland Center
06:44PM 39.6875 -119.2606 243° Southwest 444 511 31,200 -900 Descending Oakland Center
06:45PM 39.6278 -119.4097 243° Southwest 462 532 30,200 -1,080 Descending Oakland Center
06:46PM 39.5703 -119.5564 243° Southwest 457 526 29,100 -1,080 Descending Oakland Center
06:47PM 39.5089 -119.6947 240° Southwest 447 514 28,100 -1,080 Descending Oakland Center
06:48PM 39.4361 -119.8231 234° Southwest 444 511 27,000 -1,260 Descending Oakland Center
06:49PM 39.3483 -119.9769 234° Southwest 443 510 25,600 -1,260 Descending Oakland Center
06:50PM 39.2739 -120.1044 233° Southwest 446 513 24,500 -1,380 Descending Oakland Center
06:51PM 39.2108 -120.2167 234° Southwest 441 507 22,800 -2,040 Descending Oakland Center
06:52PM 39.1514 -120.3861 246° West 437 503 20,400 -2,220 Descending Oakland Center
06:53PM 39.1150 -120.5289 252° West 424 488 18,300 -1,980 Descending Oakland Center
06:54PM 39.0792 -120.6678 252° West 411 473 16,400 -1,980 Descending Oakland Center
06:55PM 39.0453 -120.8000 252° West 395 455 14,300 -2,040 Descending Oakland Center
06:56PM 39.0128 -120.9264 252° West 378 435 12,300 -1,800 Descending Oakland Center
06:57PM 38.9811 -121.0472 251° West 362 417 10,700 -1,500 Descending Oakland Center
06:58PM 38.9544 -121.1481 251° West 306 352 9,300 -1,320 Descending Oakland Center
06:59PM 38.9294 -121.2450 252° West 292 336 8,000 -780 Descending Oakland Center
07:00PM 38.9008 -121.3528 251° West 274 315 7,800 -540 Descending Oakland Center
07:01PM 38.8856 -121.4472 258° West 276 318 6,900 -1,020 Descending Oakland Center
07:02PM 38.8847 -121.5467 269° West 281 323 5,800 -900 Descending Oakland Center
07:03PM 38.8667 -121.6667 259° West 261 300 5,000 -600 Descending Northern Cal TRACON
07:04PM 38.8000 -121.7000 201° Southwest 279 321 4,500 -1,020 Descending Northern Cal TRACON
07:05PM 38.7475 -121.7011 181° South 267 307 3,200 -840 Descending Oakland Center
07:06PM 38.6783 -121.6969 177° South 256 295 3,000 -300 Descending Oakland Center
07:07PM 38.6172 -121.6911 176° South 232 267 2,600 -540 Descending Oakland Center
07:08PM 38.5983 -121.6214 109° East 208 239 1,900 -720 Descending Oakland Center
07:09PM 38.6256 -121.5806 50° Northeast 180 207 1,200 -780 Descending Oakland Center
07:10PM 38.6667 -121.5833 357° North 147 169 300 -900 Descending Northern Cal TRACON